createdAt,value
2023-04-18T00:00:10.322Z,13.73
2023-04-18T00:02:40.188Z,13.72
2023-04-18T00:05:09.638Z,13.72
2023-04-18T00:07:37.692Z,13.72
2023-04-18T00:10:08.424Z,13.75
2023-04-18T00:12:36.919Z,13.72
2023-04-18T00:15:07.313Z,13.76
2023-04-18T00:17:35.676Z,13.66
2023-04-18T00:20:07.249Z,13.74
2023-04-18T00:22:35.761Z,13.73
2023-04-18T00:25:04.078Z,13.62
2023-04-18T00:27:33.464Z,13.71
2023-04-18T00:30:01.587Z,13.72
2023-04-18T00:32:30.004Z,13.65
2023-04-18T00:35:00.497Z,13.73
2023-04-18T00:37:28.625Z,13.69
2023-04-18T00:39:56.906Z,13.65
2023-04-18T00:42:25.992Z,13.63
2023-04-18T00:44:57.884Z,13.62
2023-04-18T00:47:26.982Z,13.69
2023-04-18T00:49:55.948Z,13.55
2023-04-18T00:52:27.155Z,13.48
2023-04-18T00:54:56.624Z,13.59
2023-04-18T00:57:25.510Z,13.50
2023-04-18T00:59:55.030Z,13.43
2023-04-18T01:02:26.160Z,13.46
2023-04-18T01:04:54.792Z,13.52
2023-04-18T01:07:23.208Z,13.57
2023-04-18T01:09:51.707Z,13.55
2023-04-18T01:12:22.088Z,13.63
2023-04-18T01:14:50.083Z,13.58
2023-04-18T01:17:20.000Z,13.65
2023-04-18T01:19:48.107Z,13.55
2023-04-18T01:22:16.104Z,13.72
2023-04-18T01:24:45.727Z,13.92
2023-04-18T01:27:14.314Z,13.80
2023-04-18T01:29:42.391Z,13.92
2023-04-18T01:32:10.725Z,14.00
2023-04-18T01:34:38.807Z,13.89
2023-04-18T01:37:06.950Z,13.95
2023-04-18T01:39:38.029Z,13.89
2023-04-18T01:42:07.471Z,13.98
2023-04-18T01:44:35.746Z,14.07
2023-04-18T01:47:03.702Z,13.96
2023-04-18T01:49:33.929Z,14.07
2023-04-18T01:52:02.221Z,14.09
2023-04-18T01:54:30.208Z,14.13
2023-04-18T01:56:58.182Z,14.16
2023-04-18T01:59:27.830Z,14.11
2023-04-18T02:01:55.957Z,13.99
2023-04-18T02:04:26.555Z,14.11
2023-04-18T02:06:54.740Z,14.17
2023-04-18T02:09:22.849Z,14.16
2023-04-18T02:11:56.219Z,14.12
2023-04-18T02:14:24.733Z,14.08
2023-04-18T02:16:54.467Z,14.07
2023-04-18T02:19:22.612Z,14.14
2023-04-18T02:21:50.791Z,14.11
2023-04-18T02:24:19.379Z,14.00
2023-04-18T02:26:47.379Z,14.10
2023-04-18T02:29:15.457Z,14.05
2023-04-18T02:31:43.937Z,14.10
2023-04-18T02:34:17.561Z,14.16
2023-04-18T02:36:48.643Z,14.15
2023-04-18T02:39:16.694Z,14.09
2023-04-18T02:41:44.739Z,14.20
2023-04-18T02:44:13.329Z,14.25
2023-04-18T02:46:41.427Z,14.23
2023-04-18T02:49:09.972Z,14.21
2023-04-18T02:51:39.693Z,14.25
2023-04-18T02:54:07.933Z,14.25
2023-04-18T02:56:40.079Z,14.25
2023-04-18T02:59:11.087Z,14.29
2023-04-18T03:01:40.337Z,14.08
2023-04-18T03:04:08.718Z,14.04
2023-04-18T03:06:38.922Z,14.02
2023-04-18T03:09:07.400Z,14.21
2023-04-18T03:11:36.544Z,14.17
2023-04-18T03:14:07.295Z,14.23
2023-04-18T03:16:35.752Z,14.22
2023-04-18T03:19:04.549Z,14.08
2023-04-18T03:21:33.776Z,14.10
2023-04-18T03:24:04.021Z,14.13
2023-04-18T03:26:35.256Z,14.06
2023-04-18T03:29:03.974Z,14.08
2023-04-18T03:31:33.457Z,14.07
2023-04-18T03:34:01.802Z,14.03
2023-04-18T03:36:31.379Z,14.12
2023-04-18T03:38:59.921Z,14.18
2023-04-18T03:41:30.924Z,14.06
2023-04-18T03:43:59.413Z,13.98
2023-04-18T03:46:28.989Z,13.99
2023-04-18T03:48:57.921Z,13.95
2023-04-18T03:51:26.410Z,13.88
2023-04-18T03:53:54.503Z,13.94
2023-04-18T03:56:24.329Z,13.95
2023-04-18T03:58:54.254Z,13.94
2023-04-18T04:01:22.625Z,13.97
2023-04-18T04:03:52.241Z,13.94
2023-04-18T04:06:21.075Z,13.91
2023-04-18T04:08:49.319Z,13.94
2023-04-18T04:11:19.120Z,13.98
2023-04-18T04:13:47.265Z,13.99
2023-04-18T04:16:17.854Z,13.99
2023-04-18T04:18:46.962Z,14.02
2023-04-18T04:21:15.761Z,13.85
2023-04-18T04:23:44.198Z,13.98
2023-04-18T04:26:15.114Z,13.98
2023-04-18T04:28:46.567Z,13.89
2023-04-18T04:31:17.197Z,13.89
2023-04-18T04:33:45.566Z,13.86
2023-04-18T04:36:18.562Z,13.99
2023-04-18T04:38:48.240Z,14.05
2023-04-18T04:41:16.716Z,13.99
2023-04-18T04:43:46.573Z,14.00
2023-04-18T04:46:20.137Z,13.87
2023-04-18T04:48:50.169Z,13.98
2023-04-18T04:51:19.931Z,14.07
2023-04-18T04:53:48.099Z,14.01
2023-04-18T04:56:16.198Z,13.98
2023-04-18T04:58:45.154Z,13.71
2023-04-18T05:01:13.732Z,13.92
2023-04-18T05:03:43.747Z,14.05
2023-04-18T05:06:12.309Z,13.90
2023-04-18T05:08:40.429Z,13.95
2023-04-18T05:11:08.428Z,13.78
2023-04-18T05:13:36.687Z,13.79
2023-04-18T05:16:05.923Z,13.68
2023-04-18T05:18:35.000Z,13.53
2023-04-18T05:21:05.030Z,13.60
2023-04-18T05:23:34.872Z,13.41
2023-04-18T05:26:03.020Z,13.47
2023-04-18T05:28:31.349Z,13.48
2023-04-18T05:31:02.055Z,13.59
2023-04-18T05:33:30.772Z,13.62
2023-04-18T05:35:59.800Z,13.46
2023-04-18T05:38:29.216Z,13.66
2023-04-18T05:41:00.234Z,13.70
2023-04-18T05:43:28.658Z,13.83
2023-04-18T05:45:57.872Z,13.86
2023-04-18T05:48:28.835Z,13.87
2023-04-18T05:50:58.120Z,14.04
2023-04-18T05:53:27.154Z,14.21
2023-04-18T05:56:02.214Z,14.42
2023-04-18T05:58:31.517Z,14.59
2023-04-18T06:00:59.618Z,14.71
2023-04-18T06:03:28.424Z,14.70
2023-04-18T06:05:56.643Z,14.70
2023-04-18T06:08:24.662Z,14.75
2023-04-18T06:10:52.819Z,14.72
2023-04-18T06:13:22.067Z,14.73
2023-04-18T06:15:50.168Z,14.88
2023-04-18T06:18:18.427Z,14.82
2023-04-18T06:20:46.413Z,14.93
2023-04-18T06:23:14.370Z,14.80
2023-04-18T06:25:43.062Z,14.99
2023-04-18T06:28:11.160Z,15.06
2023-04-18T06:30:40.442Z,14.97
2023-04-18T06:33:10.467Z,15.06
2023-04-18T06:35:39.088Z,14.94
2023-04-18T06:38:07.178Z,15.04
2023-04-18T06:40:35.693Z,15.18
2023-04-18T06:43:03.939Z,15.20
2023-04-18T06:45:34.928Z,15.20
2023-04-18T06:48:06.021Z,15.12
2023-04-18T06:50:34.478Z,15.44
2023-04-18T06:53:02.642Z,15.33
2023-04-18T06:55:31.032Z,15.52
2023-04-18T06:58:00.437Z,15.70
2023-04-18T07:00:28.622Z,15.70
2023-04-18T07:03:03.161Z,15.71
2023-04-18T07:05:32.988Z,16.02
2023-04-18T07:08:01.688Z,16.06
2023-04-18T07:10:31.669Z,16.27
2023-04-18T07:12:59.789Z,15.79
2023-04-18T07:15:28.383Z,16.10
2023-04-18T07:17:56.600Z,16.08
2023-04-18T07:20:24.757Z,16.44
2023-04-18T07:22:57.045Z,16.24
2023-04-18T07:25:25.233Z,16.23
2023-04-18T07:27:53.826Z,16.22
2023-04-18T07:30:22.022Z,16.47
2023-04-18T07:32:50.454Z,16.81
2023-04-18T07:35:19.214Z,16.71
2023-04-18T07:37:49.079Z,16.55
2023-04-18T07:40:18.674Z,16.85
2023-04-18T07:42:47.250Z,16.99
2023-04-18T07:45:15.938Z,17.30
2023-04-18T07:47:44.315Z,17.60
2023-04-18T07:50:12.940Z,17.39
2023-04-18T07:52:41.172Z,17.71
2023-04-18T07:55:10.344Z,17.27
2023-04-18T07:57:40.075Z,17.09
2023-04-18T08:00:09.527Z,17.08
2023-04-18T08:02:41.816Z,17.02
2023-04-18T08:05:10.836Z,17.50
2023-04-18T08:07:39.089Z,17.27
2023-04-18T08:10:08.452Z,17.77
2023-04-18T08:12:37.176Z,18.42
2023-04-18T08:15:07.753Z,18.83
2023-04-18T08:17:36.004Z,18.61
2023-04-18T08:20:07.409Z,19.01
2023-04-18T08:22:38.936Z,19.04
2023-04-18T08:25:13.058Z,19.10
2023-04-18T08:27:41.240Z,18.74
2023-04-18T08:30:11.825Z,18.62
2023-04-18T08:32:43.228Z,18.29
2023-04-18T08:35:11.526Z,18.05
2023-04-18T08:37:40.218Z,18.00
2023-04-18T08:40:09.535Z,17.95
2023-04-18T08:42:38.379Z,17.98
2023-04-18T08:45:09.285Z,18.15
2023-04-18T08:47:38.874Z,18.12
2023-04-18T08:50:11.118Z,18.48
2023-04-18T08:52:40.706Z,18.89
2023-04-18T08:55:10.462Z,19.02
2023-04-18T08:57:38.514Z,19.11
2023-04-18T09:00:10.034Z,18.87
2023-04-18T09:02:43.851Z,18.93
2023-04-18T09:05:15.135Z,19.09
2023-04-18T09:07:44.451Z,19.24
2023-04-18T09:10:15.663Z,19.09
2023-04-18T09:12:50.667Z,19.17
2023-04-18T09:15:22.610Z,19.08
2023-04-18T09:18:01.491Z,19.25
2023-04-18T09:20:35.767Z,18.60
2023-04-18T09:23:11.516Z,18.89
2023-04-18T09:25:46.470Z,19.25
2023-04-18T09:28:27.023Z,19.24
2023-04-18T09:30:56.663Z,19.41
2023-04-18T09:33:32.595Z,19.42
2023-04-18T09:36:19.144Z,19.14
2023-04-18T09:38:48.479Z,19.08
2023-04-18T09:41:22.559Z,18.86
2023-04-18T09:43:52.197Z,18.83
2023-04-18T09:46:22.626Z,19.35
2023-04-18T09:48:52.965Z,19.56
2023-04-18T09:51:21.541Z,19.18
2023-04-18T09:53:51.029Z,19.48
2023-04-18T09:56:25.655Z,19.03
2023-04-18T09:59:01.030Z,19.17
2023-04-18T10:01:30.134Z,19.28
2023-04-18T10:04:04.226Z,19.14
2023-04-18T10:06:42.206Z,19.09
2023-04-18T10:09:11.466Z,18.99
2023-04-18T10:11:40.410Z,19.02
2023-04-18T10:14:13.864Z,19.07
2023-04-18T10:16:45.467Z,19.18
2023-04-18T10:19:26.091Z,19.38
2023-04-18T10:22:02.486Z,19.37
2023-04-18T10:24:48.481Z,19.37
2023-04-18T10:27:17.912Z,19.50
2023-04-18T10:29:50.647Z,19.57
2023-04-18T10:32:20.162Z,19.56
2023-04-18T10:34:50.651Z,19.71
2023-04-18T10:37:19.175Z,19.79
2023-04-18T10:39:56.869Z,19.86
2023-04-18T10:42:59.043Z,20.34
2023-04-18T10:45:30.677Z,20.32
2023-04-18T10:48:27.132Z,19.98
2023-04-18T10:51:16.912Z,19.80
2023-04-18T10:53:52.866Z,20.37
2023-04-18T10:56:21.712Z,20.12
2023-04-18T10:58:52.323Z,19.87
2023-04-18T11:01:31.682Z,19.86
2023-04-18T11:04:15.549Z,19.79
2023-04-18T11:06:56.343Z,19.68
2023-04-18T11:09:25.358Z,19.87
2023-04-18T11:12:05.340Z,19.96
2023-04-18T11:14:43.684Z,19.80
2023-04-18T11:17:20.136Z,19.79
2023-04-18T11:19:48.859Z,19.94
2023-04-18T11:22:19.368Z,19.86
2023-04-18T11:24:47.633Z,19.95
2023-04-18T11:27:17.382Z,19.72
2023-04-18T11:29:45.543Z,20.28
2023-04-18T11:32:13.589Z,19.87
2023-04-18T11:34:42.214Z,19.76
2023-04-18T11:37:10.725Z,19.94
2023-04-18T11:39:44.627Z,19.87
2023-04-18T11:42:13.454Z,19.59
2023-04-18T11:44:44.076Z,19.90
2023-04-18T11:47:23.979Z,19.50
2023-04-18T11:49:59.698Z,19.79
2023-04-18T11:52:32.480Z,19.98
2023-04-18T11:55:14.178Z,20.24
2023-04-18T11:57:42.883Z,19.94
2023-04-18T12:00:12.959Z,20.03
2023-04-18T12:02:43.490Z,20.15
2023-04-18T12:05:14.626Z,20.37
2023-04-18T12:07:46.598Z,20.34
2023-04-18T12:10:28.020Z,20.53
2023-04-18T12:12:58.805Z,20.42
2023-04-18T12:15:28.670Z,20.57
2023-04-18T12:18:01.857Z,20.85
2023-04-18T12:20:38.945Z,20.82
2023-04-18T12:23:30.505Z,20.64
2023-04-18T12:26:05.793Z,21.25
2023-04-18T12:28:37.178Z,21.27
2023-04-18T12:31:07.306Z,21.06
2023-04-18T12:33:37.084Z,20.92
2023-04-18T12:36:09.637Z,21.07
2023-04-18T12:38:38.654Z,20.87
2023-04-18T12:41:09.158Z,20.83
2023-04-18T12:43:40.967Z,20.41
2023-04-18T12:46:10.553Z,20.46
2023-04-18T12:52:22.466Z,19.71
2023-04-18T12:54:51.745Z,19.48
2023-04-18T12:57:21.985Z,19.80
2023-04-18T12:59:53.637Z,19.75
2023-04-18T13:02:22.073Z,19.90
2023-04-18T13:08:08.435Z,20.00
2023-04-18T13:10:42.861Z,19.95
2023-04-18T13:13:12.284Z,19.86
2023-04-18T13:15:40.588Z,20.25
2023-04-18T13:18:08.981Z,20.43
2023-04-18T13:20:37.722Z,20.44
2023-04-18T13:23:06.364Z,20.40
2023-04-18T13:25:36.561Z,20.24
2023-04-18T13:28:14.357Z,20.03
2023-04-18T13:30:44.841Z,19.64
2023-04-18T13:33:14.493Z,19.43
2023-04-18T13:35:43.662Z,19.11
2023-04-18T13:38:12.473Z,18.97
2023-04-18T13:40:40.734Z,18.73
2023-04-18T13:43:13.905Z,18.65
2023-04-18T13:45:46.903Z,18.93
2023-04-18T13:48:16.617Z,18.64
2023-04-18T13:50:46.409Z,18.81
2023-04-18T13:53:16.372Z,18.73
2023-04-18T13:55:45.947Z,18.21
2023-04-18T13:58:14.566Z,18.41
2023-04-18T14:00:42.725Z,18.28
2023-04-18T14:03:12.694Z,18.46
2023-04-18T14:05:41.660Z,18.12
2023-04-18T14:08:10.570Z,18.36
2023-04-18T14:10:39.163Z,18.41
2023-04-18T14:13:12.410Z,18.34
2023-04-18T14:15:44.113Z,18.42
2023-04-18T14:18:13.715Z,18.51
2023-04-18T14:20:57.906Z,18.50
2023-04-18T14:23:27.805Z,18.43
2023-04-18T14:25:56.137Z,18.10
2023-04-18T14:28:25.148Z,18.24
2023-04-18T14:30:55.498Z,18.24
2023-04-18T14:33:25.300Z,18.13
2023-04-18T14:35:53.462Z,18.27
2023-04-18T14:38:21.782Z,18.28
2023-04-18T14:40:50.034Z,18.31
2023-04-18T14:43:18.009Z,18.08
2023-04-18T14:45:46.105Z,18.27
2023-04-18T14:48:14.545Z,18.00
2023-04-18T14:50:44.200Z,17.95
2023-04-18T14:53:12.953Z,17.83
2023-04-18T14:55:41.160Z,17.99
2023-04-18T14:58:09.194Z,17.89
2023-04-18T15:00:37.208Z,18.02
2023-04-18T15:03:07.224Z,17.97
2023-04-18T15:05:42.703Z,18.01
2023-04-18T15:08:12.385Z,17.91
2023-04-18T15:10:42.386Z,17.82
2023-04-18T15:13:11.318Z,17.93
2023-04-18T15:15:39.904Z,17.81
2023-04-18T15:18:09.123Z,17.85
2023-04-18T15:20:39.542Z,17.94
2023-04-18T15:23:09.756Z,17.85
2023-04-18T15:25:39.472Z,17.95
2023-04-18T15:28:07.493Z,17.91
2023-04-18T15:30:35.690Z,18.04
2023-04-18T15:33:04.619Z,18.05
2023-04-18T15:35:33.121Z,18.02
2023-04-18T15:38:01.505Z,18.03
2023-04-18T15:40:30.451Z,18.10
2023-04-18T15:43:00.209Z,18.13
2023-04-18T15:45:28.676Z,18.20
2023-04-18T15:47:57.231Z,18.24
2023-04-18T15:50:26.216Z,18.25
2023-04-18T15:52:54.346Z,18.32
2023-04-18T15:55:22.752Z,18.28
2023-04-18T15:57:53.754Z,18.31
2023-04-18T16:00:25.151Z,18.31
2023-04-18T16:02:53.649Z,18.30
2023-04-18T16:05:21.771Z,18.23
2023-04-18T16:07:49.775Z,18.16
2023-04-18T16:10:18.231Z,18.19
2023-04-18T16:12:47.337Z,18.09
2023-04-18T16:15:15.444Z,17.99
2023-04-18T16:17:45.479Z,17.93
2023-04-18T16:20:13.828Z,17.97
2023-04-18T16:22:42.139Z,17.88
2023-04-18T16:25:11.029Z,17.83
2023-04-18T16:27:39.372Z,17.85
2023-04-18T16:30:10.007Z,17.73
2023-04-18T16:32:39.059Z,17.73
2023-04-18T16:35:10.230Z,17.82
2023-04-18T16:37:38.750Z,17.86
2023-04-18T16:40:09.910Z,17.84
2023-04-18T16:42:38.386Z,17.93
2023-04-18T16:45:07.391Z,17.91
2023-04-18T16:47:35.818Z,17.90
2023-04-18T16:50:04.236Z,17.90
2023-04-18T16:52:33.885Z,17.87
2023-04-18T16:55:02.121Z,17.80
2023-04-18T16:57:30.666Z,17.80
2023-04-18T17:00:02.156Z,17.90
2023-04-18T17:02:32.345Z,17.92
2023-04-18T17:05:01.074Z,17.91
2023-04-18T17:07:29.150Z,17.96
2023-04-18T17:09:58.757Z,17.97
2023-04-18T17:12:27.149Z,17.97
2023-04-18T17:14:55.153Z,17.89
2023-04-18T17:17:24.350Z,17.78
2023-04-18T17:19:52.363Z,17.79
2023-04-18T17:22:20.516Z,17.74
2023-04-18T17:24:49.001Z,17.66
2023-04-18T17:27:18.727Z,17.56
2023-04-18T17:29:46.919Z,17.65
2023-04-18T17:32:15.380Z,17.66
2023-04-18T17:34:43.688Z,17.66
2023-04-18T17:37:12.466Z,17.65
2023-04-18T17:39:40.782Z,17.65
2023-04-18T17:42:08.781Z,17.69
2023-04-18T17:44:39.732Z,17.68
2023-04-18T17:47:08.332Z,17.63
2023-04-18T17:49:36.405Z,17.67
2023-04-18T17:52:04.994Z,17.70
2023-04-18T17:54:33.811Z,17.69
2023-04-18T17:57:01.951Z,17.69
2023-04-18T17:59:30.288Z,17.65
2023-04-18T18:02:00.089Z,17.60
2023-04-18T18:04:28.679Z,17.50
2023-04-18T18:06:56.965Z,17.49
2023-04-18T18:09:25.043Z,17.42
2023-04-18T18:11:55.796Z,17.37
2023-04-18T18:14:28.088Z,17.41
2023-04-18T18:16:56.677Z,17.39
2023-04-18T18:19:26.852Z,17.38
2023-04-18T18:21:55.097Z,17.44
2023-04-18T18:26:53.230Z,17.50
2023-04-18T18:29:21.620Z,17.56
2023-04-18T18:31:50.139Z,17.60
2023-04-18T18:34:27.126Z,17.60
2023-04-18T18:36:56.931Z,17.62
2023-04-18T18:39:24.997Z,17.61
2023-04-18T18:41:53.176Z,17.65
2023-04-18T18:44:21.487Z,17.68
2023-04-18T18:46:49.560Z,17.71
2023-04-18T18:49:17.880Z,17.71
2023-04-18T18:51:46.899Z,17.73
2023-04-18T18:54:16.308Z,17.73
2023-04-18T18:56:45.274Z,17.73
2023-04-18T18:59:13.619Z,17.73
2023-04-18T19:01:41.950Z,17.75
2023-04-18T19:04:10.936Z,17.75
2023-04-18T19:06:39.363Z,17.73
2023-04-18T19:09:07.558Z,17.74
2023-04-18T19:11:37.143Z,17.75
2023-04-18T19:14:05.728Z,17.72
2023-04-18T19:16:35.954Z,17.71
2023-04-18T19:19:04.139Z,17.68
2023-04-18T19:21:32.401Z,17.62
2023-04-18T19:24:00.564Z,17.56
2023-04-18T19:26:28.650Z,17.59
2023-04-18T19:28:58.167Z,17.60
2023-04-18T19:31:26.268Z,17.58
2023-04-18T19:33:54.232Z,17.58
2023-04-18T19:36:23.335Z,17.56
2023-04-18T19:38:51.450Z,17.51
2023-04-18T19:41:19.525Z,17.52
2023-04-18T19:43:48.505Z,17.43
2023-04-18T19:46:18.051Z,17.45
2023-04-18T19:48:46.163Z,17.43
2023-04-18T19:51:14.449Z,17.35
2023-04-18T19:53:42.457Z,17.36
2023-04-18T19:56:12.502Z,17.36
2023-04-18T19:58:46.203Z,17.37
2023-04-18T20:01:15.524Z,17.39
2023-04-18T20:03:45.390Z,17.40
2023-04-18T20:06:14.209Z,17.28
2023-04-18T20:08:42.561Z,17.37
2023-04-18T20:11:11.872Z,17.31
2023-04-18T20:13:40.794Z,17.36
2023-04-18T20:16:10.958Z,17.38
2023-04-18T20:18:41.025Z,17.39
2023-04-18T20:21:11.540Z,17.37
2023-04-18T20:23:41.669Z,17.32
2023-04-18T20:26:10.059Z,17.35
2023-04-18T20:28:38.667Z,17.23
2023-04-18T20:31:07.218Z,17.28
2023-04-18T20:33:36.213Z,17.18
2023-04-18T20:36:05.476Z,17.14
2023-04-18T20:38:36.864Z,17.09
2023-04-18T20:41:04.838Z,17.18
2023-04-18T20:43:36.663Z,17.15
2023-04-18T20:46:05.045Z,17.14
2023-04-18T20:48:33.529Z,17.10
2023-04-18T20:51:01.673Z,17.11
2023-04-18T20:53:30.389Z,17.14
2023-04-18T20:56:01.939Z,17.14
2023-04-18T20:58:31.124Z,16.93
2023-04-18T21:00:59.399Z,17.09
2023-04-18T21:03:27.660Z,17.06
2023-04-18T21:05:56.183Z,16.99
2023-04-18T21:08:24.267Z,16.96
2023-04-18T21:10:52.521Z,16.83
2023-04-18T21:13:22.212Z,16.88
2023-04-18T21:15:51.885Z,16.91
2023-04-18T21:18:20.300Z,16.91
2023-04-18T21:20:48.338Z,16.75
2023-04-18T21:23:16.263Z,16.72
2023-04-18T21:25:44.508Z,16.71
2023-04-18T21:28:12.966Z,16.43
2023-04-18T21:30:42.662Z,16.61
2023-04-18T21:33:11.067Z,16.61
2023-04-18T21:35:39.430Z,16.51
2023-04-18T21:38:07.798Z,16.53
2023-04-18T21:40:35.987Z,16.44
2023-04-18T21:43:05.102Z,16.18
2023-04-18T21:45:33.759Z,16.34
2023-04-18T21:48:03.552Z,16.19
2023-04-18T21:50:31.660Z,16.15
2023-04-18T21:52:59.638Z,16.10
2023-04-18T21:55:28.125Z,16.08
2023-04-18T21:57:56.222Z,16.18
2023-04-18T22:00:24.505Z,16.16
2023-04-18T22:02:53.129Z,16.23
2023-04-18T22:05:22.925Z,16.22
2023-04-18T22:07:58.139Z,16.26
2023-04-18T22:10:26.993Z,16.28
2023-04-18T22:12:56.158Z,16.30
2023-04-18T22:15:27.185Z,16.20
2023-04-18T22:17:56.160Z,16.13
2023-04-18T22:20:26.865Z,16.08
2023-04-18T22:22:55.208Z,16.00
2023-04-18T22:25:23.481Z,15.87
2023-04-18T22:27:51.411Z,15.84
2023-04-18T22:30:19.433Z,15.88
2023-04-18T22:32:47.818Z,15.84
2023-04-18T22:35:16.961Z,15.79
2023-04-18T22:37:46.845Z,15.98
2023-04-18T22:40:16.501Z,15.99
2023-04-18T22:42:44.725Z,15.86
2023-04-18T22:45:13.594Z,15.74
2023-04-18T22:47:42.073Z,15.91
2023-04-18T22:50:10.740Z,15.86
2023-04-18T22:52:39.059Z,15.83
2023-04-18T22:55:09.886Z,15.65
2023-04-18T22:57:39.361Z,15.72
2023-04-18T23:00:10.076Z,15.52
2023-04-18T23:02:38.448Z,15.49
2023-04-18T23:05:08.145Z,15.40
2023-04-18T23:07:36.448Z,15.46
2023-04-18T23:10:06.484Z,15.39
2023-04-18T23:12:35.982Z,15.40
2023-04-18T23:15:04.559Z,15.24
2023-04-18T23:17:34.758Z,15.39
2023-04-18T23:20:03.809Z,15.21
2023-04-18T23:22:32.445Z,15.21
2023-04-18T23:25:00.580Z,15.13
2023-04-18T23:27:28.556Z,15.11
2023-04-18T23:29:58.690Z,15.08
2023-04-18T23:32:26.819Z,14.79
2023-04-18T23:34:54.849Z,15.02
2023-04-18T23:37:23.197Z,14.85
2023-04-18T23:39:51.197Z,14.93
2023-04-18T23:42:19.168Z,14.81
2023-04-18T23:44:47.517Z,14.81
2023-04-18T23:47:17.022Z,14.88
2023-04-18T23:49:45.828Z,14.71
2023-04-18T23:52:14.517Z,14.85
2023-04-18T23:54:42.592Z,14.78
2023-04-18T23:57:10.704Z,14.64
2023-04-18T23:59:39.000Z,14.63
